createdAt,value
2022-10-09T00:00:42.970Z,26
2022-10-09T00:01:45.170Z,26
2022-10-09T00:02:48.768Z,26
2022-10-09T00:03:52.462Z,26
2022-10-09T00:04:55.105Z,26.1
2022-10-09T00:05:57.152Z,26.1
2022-10-09T00:06:59.340Z,26.1
2022-10-09T00:08:01.272Z,26.1
2022-10-09T00:09:03.747Z,26.1
2022-10-09T00:10:06.223Z,26.1
2022-10-09T00:11:08.421Z,26.1
2022-10-09T00:12:10.896Z,26.1
2022-10-09T00:13:13.088Z,26.1
2022-10-09T00:14:15.284Z,26.1
2022-10-09T00:15:17.505Z,26.1
2022-10-09T00:16:20.241Z,26.1
2022-10-09T00:17:22.276Z,26.1
2022-10-09T00:18:24.750Z,26.1
2022-10-09T00:19:27.242Z,26.1
2022-10-09T00:20:29.442Z,26.1
2022-10-09T00:21:31.631Z,26.1
2022-10-09T00:22:34.104Z,26.1
2022-10-09T00:23:36.580Z,26.1
2022-10-09T00:24:39.046Z,26.2
2022-10-09T00:25:41.222Z,26.2
2022-10-09T00:26:43.699Z,26.2
2022-10-09T00:27:45.890Z,26.1
2022-10-09T00:28:48.356Z,26.2
2022-10-09T00:29:50.862Z,26.2
2022-10-09T00:30:53.622Z,26.2
2022-10-09T00:31:56.054Z,26.1
2022-10-09T00:32:58.254Z,26.1
2022-10-09T00:34:00.180Z,26.2
2022-10-09T00:35:02.374Z,26.2
2022-10-09T00:36:04.591Z,26.2
2022-10-09T00:37:06.809Z,26.2
2022-10-09T00:38:09.016Z,26.2
2022-10-09T00:39:11.190Z,26.2
2022-10-09T00:40:13.665Z,26.2
2022-10-09T00:41:15.866Z,26.2
2022-10-09T00:42:18.060Z,26.2
2022-10-09T00:43:20.532Z,26.2
2022-10-09T00:44:23.028Z,26.2
2022-10-09T00:45:25.501Z,26.2
2022-10-09T00:46:28.265Z,26.2
2022-10-09T00:47:31.012Z,26.2
2022-10-09T00:48:33.505Z,26.2
2022-10-09T00:49:35.970Z,26.2
2022-10-09T00:50:38.463Z,26.2
2022-10-09T00:51:40.932Z,26.2
2022-10-09T00:52:43.132Z,26.2
2022-10-09T00:53:45.598Z,26.2
2022-10-09T00:54:48.074Z,26.2
2022-10-09T00:55:50.264Z,26.2
2022-10-09T00:56:52.738Z,26.2
2022-10-09T00:57:55.206Z,26.2
2022-10-09T00:58:57.684Z,26.2
2022-10-09T01:00:00.183Z,26.2
2022-10-09T01:01:02.589Z,26.2
2022-10-09T01:02:05.339Z,26.2
2022-10-09T01:03:07.805Z,26.2
2022-10-09T01:04:09.995Z,26.2
2022-10-09T01:05:12.190Z,26.2
2022-10-09T01:06:14.678Z,26.2
2022-10-09T01:07:17.153Z,26.2
2022-10-09T01:08:19.341Z,26.2
2022-10-09T01:09:21.517Z,26.2
2022-10-09T01:10:23.712Z,26.2
2022-10-09T01:11:26.188Z,26.2
2022-10-09T01:12:28.666Z,26.2
2022-10-09T01:13:31.131Z,26.2
2022-10-09T01:14:33.047Z,26.2
2022-10-09T01:15:35.545Z,26.2
2022-10-09T01:16:37.849Z,26.2
2022-10-09T01:17:40.350Z,26.2
2022-10-09T01:18:42.855Z,26.2
2022-10-09T01:19:45.334Z,26.2
2022-10-09T01:20:47.310Z,26.2
2022-10-09T01:21:49.804Z,26.2
2022-10-09T01:22:52.712Z,26.2
2022-10-09T01:23:54.617Z,26.2
2022-10-09T01:24:57.087Z,26.2
2022-10-09T01:25:59.024Z,26.2
2022-10-09T01:27:01.494Z,26.2
2022-10-09T01:28:04.064Z,26.2
2022-10-09T01:29:06.774Z,26.2
2022-10-09T01:30:08.967Z,26.2
2022-10-09T01:31:10.885Z,26.2
2022-10-09T01:32:13.196Z,26.2
2022-10-09T01:33:15.416Z,26.2
2022-10-09T01:34:17.655Z,26.2
2022-10-09T01:35:19.560Z,26.2
2022-10-09T01:36:22.033Z,26.2
2022-10-09T01:37:24.525Z,26.3
2022-10-09T01:38:27.020Z,26.2
2022-10-09T01:39:29.199Z,26.3
2022-10-09T01:40:31.368Z,26.3
2022-10-09T01:41:33.563Z,26.3
2022-10-09T01:42:36.053Z,26.3
2022-10-09T01:43:37.990Z,26.3
2022-10-09T01:44:40.177Z,26.3
2022-10-09T01:45:42.564Z,26.3
2022-10-09T01:46:44.526Z,26.3
2022-10-09T01:47:46.732Z,26.3
2022-10-09T01:48:49.287Z,26.3
2022-10-09T01:49:52.153Z,26.3
2022-10-09T01:50:54.060Z,26.3
2022-10-09T01:51:56.252Z,26.3
2022-10-09T01:52:58.731Z,26.3
2022-10-09T01:54:00.937Z,26.3
2022-10-09T01:55:02.857Z,26.3
2022-10-09T01:56:05.064Z,26.3
2022-10-09T01:57:07.535Z,26.3
2022-10-09T01:58:09.727Z,26.3
2022-10-09T02:00:16.926Z,26.3
2022-10-09T02:01:19.397Z,26.3
2022-10-09T02:02:22.468Z,26.3
2022-10-09T02:03:25.265Z,26.3
2022-10-09T02:04:27.509Z,26.3
2022-10-09T02:05:29.730Z,26.3
2022-10-09T02:06:31.927Z,26.3
2022-10-09T02:07:34.118Z,26.3
2022-10-09T02:08:37.076Z,26.3
2022-10-09T02:09:39.290Z,26.3
2022-10-09T02:10:41.759Z,26.3
2022-10-09T02:11:44.234Z,26.3
2022-10-09T02:12:46.948Z,26.3
2022-10-09T02:13:50.476Z,26.3
2022-10-09T02:14:52.950Z,26.3
2022-10-09T02:15:55.665Z,26.3
2022-10-09T02:16:58.055Z,26.3
2022-10-09T02:18:00.272Z,26.3
2022-10-09T02:19:02.480Z,26.3
2022-10-09T02:20:04.440Z,26.3
2022-10-09T02:21:06.946Z,26.3
2022-10-09T02:22:08.850Z,26.3
2022-10-09T02:23:10.474Z,26.3
2022-10-09T02:24:12.420Z,26.3
2022-10-09T02:25:14.905Z,26.3
2022-10-09T02:26:17.375Z,26.3
2022-10-09T02:27:19.571Z,26.3
2022-10-09T02:28:21.388Z,26.3
2022-10-09T02:29:23.831Z,26.3
2022-10-09T02:30:26.297Z,26.3
2022-10-09T02:31:28.878Z,26.3
2022-10-09T02:32:31.003Z,26.3
2022-10-09T02:33:33.491Z,26.3
2022-10-09T02:34:35.969Z,26.3
2022-10-09T02:35:38.483Z,26.3
2022-10-09T02:36:40.908Z,26.3
2022-10-09T02:37:43.387Z,26.3
2022-10-09T02:38:45.586Z,26.3
2022-10-09T02:39:48.078Z,26.3
2022-10-09T02:40:50.283Z,26.3
2022-10-09T02:41:52.766Z,26.3
2022-10-09T02:42:54.963Z,26.3
2022-10-09T02:43:57.431Z,26.3
2022-10-09T02:44:59.937Z,26.3
2022-10-09T02:46:02.035Z,26.3
2022-10-09T02:47:04.090Z,26.3
2022-10-09T02:48:06.267Z,26.3
2022-10-09T02:49:08.752Z,26.3
2022-10-09T02:50:11.235Z,26.3
2022-10-09T02:51:13.453Z,26.3
2022-10-09T02:52:15.955Z,26.3
2022-10-09T02:53:18.426Z,26.3
2022-10-09T02:54:20.326Z,26.3
2022-10-09T02:55:22.548Z,26.3
2022-10-09T02:56:25.016Z,26.3
2022-10-09T02:57:27.493Z,26.3
2022-10-09T02:58:29.136Z,26.3
2022-10-09T02:59:31.340Z,26.4
2022-10-09T03:00:33.616Z,26.3
2022-10-09T03:01:36.017Z,26.3
2022-10-09T03:02:38.791Z,26.3
2022-10-09T03:03:41.447Z,26.3
2022-10-09T03:04:43.710Z,26.3
2022-10-09T03:05:45.920Z,26.3
2022-10-09T03:06:48.409Z,26.3
2022-10-09T03:07:50.932Z,26.2
2022-10-09T03:08:52.873Z,26.2
2022-10-09T03:09:55.068Z,26.2
2022-10-09T03:10:57.553Z,26.2
2022-10-09T03:12:00.023Z,26.2
2022-10-09T03:13:02.484Z,26.2
2022-10-09T03:14:04.677Z,26.1
2022-10-09T03:15:06.638Z,26.1
2022-10-09T03:16:08.472Z,26.1
2022-10-09T03:17:10.851Z,26.1
2022-10-09T03:18:13.048Z,26.1
2022-10-09T03:19:14.965Z,26.1
2022-10-09T03:20:17.454Z,26.1
2022-10-09T03:21:19.647Z,26.1
2022-10-09T03:22:21.869Z,26
2022-10-09T03:23:24.369Z,26
2022-10-09T03:24:26.841Z,26
2022-10-09T03:25:29.039Z,26
2022-10-09T03:26:31.531Z,26
2022-10-09T03:27:33.990Z,26
2022-10-09T03:28:36.707Z,26
2022-10-09T03:29:39.390Z,26
2022-10-09T03:30:41.600Z,26
2022-10-09T03:32:49.946Z,26
2022-10-09T03:33:53.185Z,26
2022-10-09T03:34:55.678Z,26
2022-10-09T03:35:58.158Z,25.9
2022-10-09T03:37:00.356Z,25.9
2022-10-09T03:38:02.855Z,25.9
2022-10-09T03:39:05.363Z,25.9
2022-10-09T03:40:07.557Z,25.9
2022-10-09T03:41:10.030Z,25.9
2022-10-09T03:42:12.538Z,25.9
2022-10-09T03:43:14.723Z,25.9
2022-10-09T03:44:16.926Z,25.9
2022-10-09T03:45:19.433Z,25.9
2022-10-09T03:46:22.105Z,25.9
2022-10-09T03:47:24.481Z,25.9
2022-10-09T03:48:26.953Z,25.9
2022-10-09T03:49:28.880Z,25.9
2022-10-09T03:50:31.363Z,25.9
2022-10-09T03:51:33.578Z,25.9
2022-10-09T03:52:35.475Z,25.9
2022-10-09T03:53:37.981Z,25.9
2022-10-09T03:54:40.497Z,25.9
2022-10-09T03:55:42.970Z,25.8
2022-10-09T03:56:45.433Z,25.8
2022-10-09T03:57:47.936Z,25.8
2022-10-09T03:58:50.406Z,25.8
2022-10-09T03:59:52.576Z,25.8
2022-10-09T04:00:54.803Z,25.8
2022-10-09T04:01:57.235Z,25.8
2022-10-09T04:02:59.678Z,25.8
2022-10-09T04:04:02.463Z,25.8
2022-10-09T04:05:04.646Z,25.8
2022-10-09T04:06:06.851Z,25.8
2022-10-09T04:07:09.053Z,25.8
2022-10-09T04:08:11.519Z,25.8
2022-10-09T04:09:13.714Z,25.8
2022-10-09T04:10:15.959Z,25.8
2022-10-09T04:11:17.882Z,25.8
2022-10-09T04:12:20.074Z,25.8
2022-10-09T04:13:22.583Z,25.8
2022-10-09T04:14:24.758Z,25.8
2022-10-09T04:15:27.178Z,25.8
2022-10-09T04:16:29.987Z,25.8
2022-10-09T04:17:32.463Z,25.8
2022-10-09T04:18:34.935Z,25.8
2022-10-09T04:19:36.835Z,25.8
2022-10-09T04:20:39.039Z,25.8
2022-10-09T04:21:41.236Z,25.8
2022-10-09T04:22:43.735Z,25.8
2022-10-09T04:23:45.938Z,25.8
2022-10-09T04:24:48.441Z,25.8
2022-10-09T04:25:50.953Z,25.8
2022-10-09T04:26:52.863Z,25.8
2022-10-09T04:27:55.336Z,25.8
2022-10-09T04:28:57.850Z,25.8
2022-10-09T04:30:00.028Z,25.8
2022-10-09T04:31:02.529Z,25.8
2022-10-09T04:32:05.006Z,25.8
2022-10-09T04:34:12.464Z,25.8
2022-10-09T04:35:14.368Z,25.8
2022-10-09T04:36:16.843Z,25.8
2022-10-09T04:37:19.309Z,25.8
2022-10-09T04:38:21.521Z,25.8
2022-10-09T04:39:23.982Z,25.8
2022-10-09T04:40:26.547Z,25.8
2022-10-09T04:41:28.491Z,25.8
2022-10-09T04:42:30.966Z,25.8
2022-10-09T04:43:33.434Z,25.8
2022-10-09T04:44:35.920Z,25.8
2022-10-09T04:45:38.180Z,25.8
2022-10-09T04:46:40.870Z,25.8
2022-10-09T04:47:43.059Z,25.8
2022-10-09T04:48:45.539Z,25.8
2022-10-09T04:49:47.730Z,25.8
2022-10-09T04:50:50.205Z,25.8
2022-10-09T04:51:52.400Z,25.7
2022-10-09T04:52:54.874Z,25.8
2022-10-09T04:55:02.076Z,25.7
2022-10-09T04:56:04.302Z,25.7
2022-10-09T04:57:06.816Z,25.7
2022-10-09T04:58:09.005Z,25.7
2022-10-09T04:59:11.495Z,25.7
2022-10-09T05:00:13.720Z,25.7
2022-10-09T05:01:16.150Z,25.7
2022-10-09T05:02:18.963Z,25.7
2022-10-09T05:03:21.750Z,25.7
2022-10-09T05:04:23.947Z,25.7
2022-10-09T05:05:26.422Z,25.7
2022-10-09T05:06:28.622Z,25.7
2022-10-09T05:07:31.105Z,25.7
2022-10-09T05:08:33.579Z,25.7
2022-10-09T05:09:35.790Z,25.7
2022-10-09T05:10:38.270Z,25.7
2022-10-09T05:12:45.615Z,25.7
2022-10-09T05:13:49.049Z,25.7
2022-10-09T05:14:51.322Z,25.7
2022-10-09T05:15:53.804Z,25.7
2022-10-09T05:18:01.308Z,25.7
2022-10-09T05:19:03.773Z,25.7
2022-10-09T05:20:05.987Z,25.7
2022-10-09T05:21:08.182Z,25.7
2022-10-09T05:22:10.107Z,25.7
2022-10-09T05:23:12.295Z,25.7
2022-10-09T05:24:14.495Z,25.7
2022-10-09T05:25:16.687Z,25.7
2022-10-09T05:26:19.191Z,25.7
2022-10-09T05:27:21.658Z,25.7
2022-10-09T05:28:24.324Z,25.7
2022-10-09T05:29:27.191Z,25.7
2022-10-09T05:30:29.108Z,25.7
2022-10-09T05:31:31.492Z,25.7
2022-10-09T05:32:33.840Z,25.7
2022-10-09T05:33:36.326Z,25.7
2022-10-09T05:34:38.814Z,25.7
2022-10-09T05:35:40.993Z,25.7
2022-10-09T05:36:43.168Z,25.7
2022-10-09T05:37:45.367Z,25.7
2022-10-09T05:38:47.862Z,25.7
2022-10-09T05:39:50.084Z,25.7
2022-10-09T05:40:52.557Z,25.7
2022-10-09T05:41:54.768Z,25.6
2022-10-09T05:42:56.971Z,25.6
2022-10-09T05:43:59.512Z,25.6
2022-10-09T05:45:02.022Z,25.6
2022-10-09T05:46:04.540Z,25.6
2022-10-09T05:47:06.607Z,25.6
2022-10-09T05:48:08.802Z,25.6
2022-10-09T05:49:11.326Z,25.6
2022-10-09T05:50:13.539Z,25.6
2022-10-09T05:51:15.448Z,25.6
2022-10-09T05:52:17.341Z,25.6
2022-10-09T05:53:19.829Z,25.6
2022-10-09T05:54:22.030Z,25.6
2022-10-09T05:55:24.513Z,25.6
2022-10-09T05:56:26.418Z,25.6
2022-10-09T05:57:28.363Z,25.6
2022-10-09T05:58:30.293Z,25.6
2022-10-09T05:59:31.950Z,25.6
2022-10-09T06:00:34.442Z,25.6
2022-10-09T06:01:36.999Z,25.6
2022-10-09T06:02:39.855Z,25.6
2022-10-09T06:03:42.222Z,25.6
2022-10-09T06:04:44.690Z,25.6
2022-10-09T06:05:46.878Z,25.6
2022-10-09T06:06:49.133Z,25.6
2022-10-09T06:07:51.332Z,25.6
2022-10-09T06:08:53.523Z,25.6
2022-10-09T06:09:56.010Z,25.6
2022-10-09T06:10:58.207Z,25.6
2022-10-09T06:12:00.413Z,25.6
2022-10-09T06:13:02.914Z,25.6
2022-10-09T06:14:05.083Z,25.6
2022-10-09T06:15:07.035Z,25.6
2022-10-09T06:16:09.588Z,25.6
2022-10-09T06:17:12.287Z,25.6
2022-10-09T06:18:14.508Z,25.6
2022-10-09T06:19:16.976Z,25.6
2022-10-09T06:20:19.692Z,25.6
2022-10-09T06:21:22.162Z,25.6
2022-10-09T06:22:24.356Z,25.6
2022-10-09T06:23:26.826Z,25.6
2022-10-09T06:24:30.486Z,25.6
2022-10-09T06:25:32.983Z,25.6
2022-10-09T06:26:35.462Z,25.6
2022-10-09T06:27:37.391Z,25.6
2022-10-09T06:28:39.514Z,25.6
2022-10-09T06:29:42.359Z,25.6
2022-10-09T06:30:44.879Z,25.6
2022-10-09T06:31:47.541Z,25.6
2022-10-09T06:32:51.065Z,25.6
2022-10-09T06:33:54.470Z,25.6
2022-10-09T06:34:56.125Z,25.6
2022-10-09T06:37:03.326Z,25.6
2022-10-09T06:38:05.846Z,25.6
2022-10-09T06:39:08.342Z,25.6
2022-10-09T06:40:10.250Z,25.6
2022-10-09T06:41:11.894Z,25.6
2022-10-09T06:42:14.365Z,25.6
2022-10-09T06:43:16.842Z,25.6
2022-10-09T06:44:18.813Z,25.6
2022-10-09T06:45:21.001Z,25.6
2022-10-09T06:46:23.487Z,25.6
2022-10-09T06:47:25.824Z,25.6
2022-10-09T06:48:28.033Z,25.6
2022-10-09T06:49:30.530Z,25.6
2022-10-09T06:50:32.721Z,25.6
2022-10-09T06:51:34.930Z,25.6
2022-10-09T06:52:37.253Z,25.6
2022-10-09T06:53:39.446Z,25.6
2022-10-09T06:54:41.349Z,25.6
2022-10-09T06:55:43.558Z,25.6
2022-10-09T06:56:45.735Z,25.6
2022-10-09T06:57:48.224Z,25.6
2022-10-09T06:58:50.700Z,25.6
2022-10-09T06:59:52.932Z,25.6
2022-10-09T07:00:55.130Z,25.6
2022-10-09T07:01:57.817Z,25.6
2022-10-09T07:03:01.129Z,25.6
2022-10-09T07:04:03.621Z,25.6
2022-10-09T07:05:05.844Z,25.6
2022-10-09T07:06:07.821Z,25.6
2022-10-09T07:07:10.324Z,25.6
2022-10-09T07:08:12.798Z,25.6
2022-10-09T07:09:14.734Z,25.6
2022-10-09T07:10:22.890Z,25.6
2022-10-09T07:11:25.213Z,25.6
2022-10-09T07:12:27.421Z,25.6
2022-10-09T07:13:29.628Z,25.6
2022-10-09T07:14:31.561Z,25.6
2022-10-09T07:15:34.343Z,25.6
2022-10-09T07:16:36.750Z,25.6
2022-10-09T07:17:38.999Z,25.6
2022-10-09T07:18:41.505Z,25.6
2022-10-09T07:19:43.700Z,25.6
2022-10-09T07:20:45.889Z,25.6
2022-10-09T07:21:48.439Z,25.6
2022-10-09T07:22:51.770Z,25.6
2022-10-09T07:23:53.914Z,25.6
2022-10-09T07:24:55.823Z,25.5
2022-10-09T07:25:57.748Z,25.6
2022-10-09T07:27:00.220Z,25.6
2022-10-09T07:28:02.712Z,25.6
2022-10-09T07:29:05.336Z,25.6
2022-10-09T07:30:07.824Z,25.6
2022-10-09T07:31:10.374Z,25.6
2022-10-09T07:32:12.784Z,25.6
2022-10-09T07:33:15.007Z,25.6
2022-10-09T07:34:17.515Z,25.6
2022-10-09T07:35:19.706Z,25.6
2022-10-09T07:36:22.214Z,25.6
2022-10-09T07:37:24.196Z,25.6
2022-10-09T07:38:26.670Z,25.6
2022-10-09T07:39:28.859Z,25.6
2022-10-09T07:40:31.080Z,25.6
2022-10-09T07:41:33.276Z,25.6
2022-10-09T07:42:34.907Z,25.6
2022-10-09T07:43:36.851Z,25.6
2022-10-09T07:44:38.499Z,25.6
2022-10-09T07:45:40.696Z,25.6
2022-10-09T07:46:43.330Z,25.6
2022-10-09T07:47:45.804Z,25.6
2022-10-09T07:48:48.315Z,25.6
2022-10-09T07:49:50.566Z,25.6
2022-10-09T07:50:53.049Z,25.6
2022-10-09T07:51:55.541Z,25.5
2022-10-09T07:52:58.027Z,25.6
2022-10-09T07:54:00.309Z,25.6
2022-10-09T07:55:02.850Z,25.6
2022-10-09T07:56:05.316Z,25.6
2022-10-09T07:57:07.806Z,25.6
2022-10-09T07:58:10.280Z,25.6
2022-10-09T07:59:12.482Z,25.5
2022-10-09T08:00:14.441Z,25.5
2022-10-09T08:02:22.094Z,25.5
2022-10-09T08:03:24.097Z,25.5
2022-10-09T08:04:26.343Z,25.6
2022-10-09T08:05:28.865Z,25.5
2022-10-09T08:06:31.486Z,25.5
2022-10-09T08:08:38.692Z,25.5
2022-10-09T08:09:41.171Z,25.5
2022-10-09T08:10:43.646Z,25.5
2022-10-09T08:11:45.568Z,25.5
2022-10-09T08:12:49.184Z,25.5
2022-10-09T08:13:53.017Z,25.5
2022-10-09T08:14:55.487Z,25.5
2022-10-09T08:15:58.259Z,25.5
2022-10-09T08:17:00.888Z,25.5
2022-10-09T08:18:03.105Z,25.5
2022-10-09T08:19:05.282Z,25.5
2022-10-09T08:20:07.506Z,25.5
2022-10-09T08:21:10.020Z,25.5
2022-10-09T08:22:11.927Z,25.5
2022-10-09T08:23:14.419Z,25.5
2022-10-09T08:24:16.614Z,25.5
2022-10-09T08:25:18.257Z,25.5
2022-10-09T08:26:20.739Z,25.5
2022-10-09T08:27:23.224Z,25.5
2022-10-09T08:28:25.952Z,25.5
2022-10-09T08:29:28.397Z,25.5
2022-10-09T08:30:30.322Z,25.5
2022-10-09T08:31:32.851Z,25.5
2022-10-09T08:32:35.515Z,25.5
2022-10-09T08:33:38.026Z,25.5
2022-10-09T08:34:40.225Z,25.5
2022-10-09T08:35:42.197Z,25.5
2022-10-09T08:36:44.705Z,25.5
2022-10-09T08:37:46.624Z,25.5
2022-10-09T08:38:49.396Z,25.5
2022-10-09T08:39:51.355Z,25.5
2022-10-09T08:41:58.825Z,25.5
2022-10-09T08:43:01.306Z,25.5
2022-10-09T08:44:03.506Z,25.5
2022-10-09T08:45:05.427Z,25.5
2022-10-09T08:46:07.784Z,25.5
2022-10-09T08:47:10.129Z,25.5
2022-10-09T08:48:12.600Z,25.5
2022-10-09T08:49:14.544Z,25.5
2022-10-09T08:50:16.752Z,25.5
2022-10-09T08:51:19.250Z,25.5
2022-10-09T08:52:21.491Z,25.5
2022-10-09T08:53:23.977Z,25.5
2022-10-09T08:54:26.188Z,25.5
2022-10-09T08:55:28.669Z,25.5
2022-10-09T08:56:30.871Z,25.5
2022-10-09T08:57:33.120Z,25.5
2022-10-09T08:58:35.608Z,25.5
2022-10-09T08:59:37.839Z,25.5
2022-10-09T09:00:39.761Z,25.5
2022-10-09T09:01:41.911Z,25.5
2022-10-09T09:02:44.443Z,25.5
2022-10-09T09:03:46.028Z,25.5
2022-10-09T09:05:53.511Z,25.5
2022-10-09T09:06:55.741Z,25.5
2022-10-09T09:07:58.244Z,25.5
2022-10-09T09:09:00.430Z,25.5
2022-10-09T09:10:02.932Z,25.5
2022-10-09T09:11:05.151Z,25.5
2022-10-09T09:12:07.627Z,25.5
2022-10-09T09:13:09.640Z,25.5
2022-10-09T09:14:11.588Z,25.5
2022-10-09T09:15:13.526Z,25.5
2022-10-09T09:16:16.277Z,25.5
2022-10-09T09:17:18.615Z,25.5
2022-10-09T09:18:21.094Z,25.5
2022-10-09T09:19:23.601Z,25.5
2022-10-09T09:20:25.824Z,25.5
2022-10-09T09:21:28.325Z,25.5
2022-10-09T09:22:30.874Z,25.5
2022-10-09T09:23:32.829Z,25.5
2022-10-09T09:24:34.756Z,25.5
2022-10-09T09:25:37.268Z,25.5
2022-10-09T09:26:39.467Z,25.5
2022-10-09T09:27:41.677Z,25.5
2022-10-09T09:28:44.451Z,25.5
2022-10-09T09:29:46.741Z,25.5
2022-10-09T09:30:49.079Z,25.5
2022-10-09T09:31:51.072Z,25.5
2022-10-09T09:32:53.311Z,25.5
2022-10-09T09:33:55.794Z,25.5
2022-10-09T09:34:58.003Z,25.5
2022-10-09T09:36:00.202Z,25.5
2022-10-09T09:37:02.706Z,25.5
2022-10-09T09:38:04.909Z,25.5
2022-10-09T09:41:17.452Z,25.5
2022-10-09T09:42:19.929Z,25.5
2022-10-09T09:43:22.145Z,25.5
2022-10-09T09:44:24.630Z,25.5
2022-10-09T09:45:26.828Z,25.5
2022-10-09T09:46:29.418Z,25.5
2022-10-09T09:47:31.983Z,25.5
2022-10-09T09:48:34.481Z,25.5
2022-10-09T09:49:36.986Z,25.5
2022-10-09T09:51:44.491Z,25.5
2022-10-09T09:52:46.434Z,25.5
2022-10-09T09:53:48.116Z,25.5
2022-10-09T09:54:50.350Z,25.5
2022-10-09T09:55:52.570Z,25.5
2022-10-09T09:57:59.784Z,25.5
2022-10-09T09:59:02.004Z,25.5
2022-10-09T10:00:04.225Z,25.5
2022-10-09T10:01:06.704Z,25.5
2022-10-09T10:02:09.567Z,25.5
2022-10-09T10:03:12.061Z,25.5
2022-10-09T10:04:14.267Z,25.5
2022-10-09T10:05:16.798Z,25.5
2022-10-09T10:06:18.765Z,25.5
2022-10-09T10:07:21.248Z,25.5
2022-10-09T10:08:23.487Z,25.5
2022-10-09T10:09:25.713Z,25.5
2022-10-09T10:10:28.032Z,25.5
2022-10-09T10:11:29.678Z,25.5
2022-10-09T10:12:31.898Z,25.5
2022-10-09T10:13:34.385Z,25.5
2022-10-09T10:14:36.862Z,25.5
2022-10-09T10:15:39.344Z,25.5
2022-10-09T10:16:41.389Z,25.5
2022-10-09T10:17:43.583Z,25.5
2022-10-09T10:18:45.763Z,25.5
2022-10-09T10:19:48.243Z,25.5
2022-10-09T10:20:50.719Z,25.5
2022-10-09T10:21:53.186Z,25.5
2022-10-09T10:22:55.388Z,25.5
2022-10-09T10:23:57.546Z,25.5
2022-10-09T10:25:00.359Z,25.5
2022-10-09T10:26:02.592Z,25.5
2022-10-09T10:27:05.068Z,25.5
2022-10-09T10:28:07.542Z,25.5
2022-10-09T10:29:09.928Z,25.5
2022-10-09T10:30:12.404Z,25.5
2022-10-09T10:31:14.755Z,25.5
2022-10-09T10:32:17.292Z,25.5
2022-10-09T10:33:19.274Z,25.5
2022-10-09T10:34:21.461Z,25.5
2022-10-09T10:35:23.373Z,25.5
2022-10-09T10:36:25.840Z,25.5
2022-10-09T10:37:28.330Z,25.5
2022-10-09T10:38:30.801Z,25.5
2022-10-09T10:39:33.300Z,25.5
2022-10-09T10:40:35.228Z,25.5
2022-10-09T10:41:37.456Z,25.5
2022-10-09T10:42:39.378Z,25.5
2022-10-09T10:43:41.875Z,25.5
2022-10-09T10:44:44.341Z,25.5
2022-10-09T10:45:46.826Z,25.5
2022-10-09T10:46:49.355Z,25.5
2022-10-09T10:47:53.598Z,25.5
2022-10-09T10:48:55.793Z,25.5
2022-10-09T10:49:57.440Z,25.5
2022-10-09T10:50:59.642Z,25.5
2022-10-09T10:52:01.846Z,25.5
2022-10-09T10:53:03.492Z,25.5
2022-10-09T10:54:05.395Z,25.5
2022-10-09T10:55:07.895Z,25.5
2022-10-09T10:56:10.540Z,25.5
2022-10-09T10:57:13.053Z,25.5
2022-10-09T10:58:15.739Z,25.5
2022-10-09T10:59:17.822Z,25.5
2022-10-09T11:00:20.022Z,25.5
2022-10-09T11:01:22.552Z,25.5
2022-10-09T11:02:25.344Z,25.5
2022-10-09T11:03:28.243Z,25.5
2022-10-09T11:04:30.392Z,25.5
2022-10-09T11:05:32.874Z,25.5
2022-10-09T11:06:35.344Z,25.5
2022-10-09T11:07:37.818Z,25.5
2022-10-09T11:08:40.029Z,25.5
2022-10-09T11:09:42.502Z,25.5
2022-10-09T11:10:44.423Z,25.5
2022-10-09T11:11:46.636Z,25.5
2022-10-09T11:12:49.415Z,25.5
2022-10-09T11:13:51.884Z,25.5
2022-10-09T11:14:54.369Z,25.5
2022-10-09T11:15:56.762Z,25.5
2022-10-09T11:16:58.828Z,25.5
2022-10-09T11:18:01.025Z,25.5
2022-10-09T11:19:02.968Z,25.5
2022-10-09T11:20:05.451Z,25.5
2022-10-09T11:21:07.096Z,25.5
2022-10-09T11:22:09.576Z,25.5
2022-10-09T11:23:12.054Z,25.5
2022-10-09T11:24:14.525Z,25.5
2022-10-09T11:25:17.012Z,25.5
2022-10-09T11:26:19.524Z,25.5
2022-10-09T11:27:22.018Z,25.5
2022-10-09T11:28:24.418Z,25.5
2022-10-09T11:29:26.806Z,25.5
2022-10-09T11:30:29.337Z,25.5
2022-10-09T11:31:32.257Z,25.5
2022-10-09T11:32:34.702Z,25.5
2022-10-09T11:33:37.535Z,25.5
2022-10-09T11:34:40.032Z,25.5
2022-10-09T11:35:42.519Z,25.5
2022-10-09T11:36:45.014Z,25.5
2022-10-09T11:37:48.015Z,25.5
2022-10-09T11:38:51.770Z,25.5
2022-10-09T11:39:54.243Z,25.5
2022-10-09T11:40:56.717Z,25.5
2022-10-09T11:41:59.213Z,25.5
2022-10-09T11:43:01.442Z,25.5
2022-10-09T11:44:03.666Z,25.5
2022-10-09T11:45:05.606Z,25.5
2022-10-09T11:46:08.213Z,25.5
2022-10-09T11:47:11.069Z,25.5
2022-10-09T11:48:13.543Z,25.5
2022-10-09T11:49:16.032Z,25.5
2022-10-09T11:50:18.511Z,25.5
2022-10-09T11:51:20.729Z,25.5
2022-10-09T11:52:23.203Z,25.5
2022-10-09T11:53:25.103Z,25.5
2022-10-09T11:54:27.322Z,25.5
2022-10-09T11:55:29.792Z,25.5
2022-10-09T11:56:32.271Z,25.5
2022-10-09T11:57:34.768Z,25.5
2022-10-09T11:58:37.049Z,25.5
2022-10-09T11:59:39.551Z,25.5
2022-10-09T12:00:41.758Z,25.5
2022-10-09T12:01:44.188Z,25.5
2022-10-09T12:02:47.086Z,25.5
2022-10-09T12:03:49.546Z,25.5
2022-10-09T12:05:57.007Z,25.5
2022-10-09T12:06:59.484Z,25.5
2022-10-09T12:08:01.966Z,25.5
2022-10-09T12:09:04.159Z,25.5
2022-10-09T12:10:06.646Z,25.5
2022-10-09T12:11:08.579Z,25.5
2022-10-09T12:12:11.045Z,25.5
2022-10-09T12:13:13.264Z,25.5
2022-10-09T12:15:20.305Z,25.5
2022-10-09T12:16:23.090Z,25.5
2022-10-09T12:17:25.875Z,25.5
2022-10-09T12:18:27.860Z,25.5
2022-10-09T12:19:30.372Z,25.5
2022-10-09T12:20:32.865Z,25.5
2022-10-09T12:21:35.357Z,25.5
2022-10-09T12:22:37.287Z,25.5
2022-10-09T12:23:39.493Z,25.5
2022-10-09T12:24:41.966Z,25.5
2022-10-09T12:25:44.163Z,25.5
2022-10-09T12:26:46.382Z,25.5
2022-10-09T12:27:48.859Z,25.5
2022-10-09T12:28:51.506Z,25.5
2022-10-09T12:29:53.695Z,25.5
2022-10-09T12:30:56.395Z,25.5
2022-10-09T12:31:59.133Z,25.5
2022-10-09T12:33:01.641Z,25.5
2022-10-09T12:34:03.850Z,25.5
2022-10-09T12:35:06.034Z,25.5
2022-10-09T12:36:08.233Z,25.5
2022-10-09T12:37:10.505Z,25.5
2022-10-09T12:38:12.713Z,25.5
2022-10-09T12:39:15.177Z,25.5
2022-10-09T12:40:17.673Z,25.5
2022-10-09T12:41:21.472Z,25.5
2022-10-09T12:42:23.664Z,25.5
2022-10-09T12:43:25.825Z,25.5
2022-10-09T12:44:27.736Z,25.5
2022-10-09T12:45:29.948Z,25.5
2022-10-09T12:46:31.994Z,25.5
2022-10-09T12:47:34.509Z,25.5
2022-10-09T12:48:36.729Z,25.5
2022-10-09T12:49:39.243Z,25.5
2022-10-09T12:50:41.450Z,25.5
2022-10-09T12:51:43.085Z,25.5
2022-10-09T12:52:45.271Z,25.5
2022-10-09T12:53:48.319Z,25.5
2022-10-09T12:54:50.521Z,25.5
2022-10-09T12:55:52.728Z,25.5
2022-10-09T12:56:55.220Z,25.5
2022-10-09T12:57:57.401Z,25.4
2022-10-09T12:58:59.638Z,25.4
2022-10-09T13:00:01.864Z,25.4
2022-10-09T13:01:04.625Z,25.5
2022-10-09T13:02:07.814Z,25.5
2022-10-09T13:03:10.889Z,25.4
2022-10-09T13:04:13.116Z,25.5
2022-10-09T13:05:15.299Z,25.4
2022-10-09T13:06:17.769Z,25.4
2022-10-09T13:07:19.976Z,25.4
2022-10-09T13:08:22.456Z,25.4
2022-10-09T13:09:24.630Z,25.4
2022-10-09T13:10:26.844Z,25.4
2022-10-09T13:11:29.041Z,25.4
2022-10-09T13:12:31.543Z,25.4
2022-10-09T13:13:33.460Z,25.4
2022-10-09T13:14:35.100Z,25.4
2022-10-09T13:15:37.601Z,25.4
2022-10-09T13:16:40.007Z,25.4
2022-10-09T13:17:42.722Z,25.4
2022-10-09T13:18:44.971Z,25.4
2022-10-09T13:19:46.904Z,25.4
2022-10-09T13:20:49.396Z,25.4
2022-10-09T13:21:51.861Z,25.4
2022-10-09T13:22:54.072Z,25.4
2022-10-09T13:23:56.266Z,25.4
2022-10-09T13:24:58.775Z,25.4
2022-10-09T13:27:05.990Z,25.4
2022-10-09T13:28:08.112Z,25.4
2022-10-09T13:29:10.746Z,25.4
2022-10-09T13:30:13.234Z,25.4
2022-10-09T13:31:15.432Z,25.4
2022-10-09T13:32:18.093Z,25.4
2022-10-09T13:33:20.600Z,25.4
2022-10-09T13:34:22.865Z,25.4
2022-10-09T13:35:25.376Z,25.4
2022-10-09T13:36:27.581Z,25.4
2022-10-09T13:37:29.215Z,25.4
2022-10-09T13:39:36.699Z,25.4
2022-10-09T13:40:39.171Z,25.4
2022-10-09T13:41:41.111Z,25.4
2022-10-09T13:42:42.763Z,25.4
2022-10-09T13:43:45.248Z,25.4
2022-10-09T13:44:47.720Z,25.4
2022-10-09T13:45:49.912Z,25.5
2022-10-09T13:46:52.582Z,25.4
2022-10-09T13:47:55.055Z,25.4
2022-10-09T13:48:57.310Z,25.4
2022-10-09T13:49:59.823Z,25.4
2022-10-09T13:51:02.317Z,25.4
2022-10-09T13:52:04.797Z,25.4
2022-10-09T13:53:07.280Z,25.4
2022-10-09T13:54:09.774Z,25.5
2022-10-09T13:55:11.983Z,25.5
2022-10-09T13:56:14.481Z,25.5
2022-10-09T13:57:17.119Z,25.5
2022-10-09T13:58:19.669Z,25.5
2022-10-09T13:59:22.154Z,25.5
2022-10-09T14:00:24.078Z,25.5
2022-10-09T14:01:26.842Z,25.5
2022-10-09T14:02:29.922Z,25.5
2022-10-09T14:03:32.167Z,25.5
2022-10-09T14:04:34.168Z,25.5
2022-10-09T14:05:36.446Z,25.5
2022-10-09T14:06:38.661Z,25.4
2022-10-09T14:07:40.915Z,25.4
2022-10-09T14:08:43.243Z,25.5
2022-10-09T14:09:45.148Z,25.5
2022-10-09T14:10:47.641Z,25.5
2022-10-09T14:11:49.873Z,25.4